createdAt,value
2022-10-15T00:01:30.034Z,39.73
2022-10-15T00:03:57.652Z,38.87
2022-10-15T00:06:25.478Z,37.90
2022-10-15T00:08:53.259Z,47.17
2022-10-15T00:11:22.219Z,44.67
2022-10-15T00:13:50.051Z,47.10
2022-10-15T00:16:20.093Z,44.37
2022-10-15T00:18:48.120Z,46.77
2022-10-15T00:21:16.670Z,49.53
2022-10-15T00:23:45.072Z,48.53
2022-10-15T00:26:14.684Z,50.00
2022-10-15T00:28:43.026Z,51.30
2022-10-15T00:31:12.084Z,56.13
2022-10-15T00:33:41.256Z,53.13
2022-10-15T00:36:10.392Z,50.93
2022-10-15T00:38:38.115Z,50.60
2022-10-15T00:41:07.266Z,50.93
2022-10-15T00:43:41.965Z,54.13
2022-10-15T00:46:16.440Z,53.53
2022-10-15T00:48:47.627Z,57.27
2022-10-15T00:51:16.107Z,53.90
2022-10-15T00:53:43.830Z,53.63
2022-10-15T00:56:13.021Z,59.97
2022-10-15T00:58:40.531Z,52.10
2022-10-15T01:01:08.759Z,61.83
2022-10-15T01:03:36.803Z,57.27
2022-10-15T01:06:06.074Z,54.57
2022-10-15T01:08:34.276Z,57.63
2022-10-15T01:11:06.706Z,53.80
2022-10-15T01:13:38.832Z,53.63
2022-10-15T01:16:09.715Z,57.87
2022-10-15T01:18:40.440Z,63.93
2022-10-15T01:21:15.315Z,54.83
2022-10-15T01:24:05.140Z,55.33
2022-10-15T01:26:46.054Z,58.90
2022-10-15T01:29:21.297Z,60.40
2022-10-15T01:31:54.247Z,62.57
2022-10-15T01:34:32.074Z,58.83
2022-10-15T01:37:04.867Z,63.40
2022-10-15T01:39:33.662Z,58.37
2022-10-15T01:42:02.109Z,52.27
2022-10-15T01:44:32.337Z,60.63
2022-10-15T01:47:18.203Z,52.70
2022-10-15T01:49:47.645Z,55.27
2022-10-15T01:52:17.921Z,52.30
2022-10-15T01:54:47.086Z,58.07
2022-10-15T02:01:27.547Z,63.07
2022-10-15T02:03:56.720Z,63.70
2022-10-15T02:06:26.830Z,65.90
2022-10-15T02:09:01.894Z,58.80
2022-10-15T02:11:30.623Z,55.10
2022-10-15T02:14:01.971Z,55.43
2022-10-15T02:16:32.693Z,60.57
2022-10-15T02:19:05.547Z,59.53
2022-10-15T02:21:36.625Z,58.90
2022-10-15T02:24:07.089Z,59.37
2022-10-15T02:26:35.528Z,60.13
2022-10-15T02:29:04.893Z,60.83
2022-10-15T02:31:35.351Z,54.20
2022-10-15T02:37:02.147Z,61.17
2022-10-15T02:39:29.806Z,56.90
2022-10-15T02:41:59.875Z,70.13
2022-10-15T02:44:27.514Z,63.70
2022-10-15T02:46:55.861Z,59.37
2022-10-15T02:49:25.048Z,59.73
2022-10-15T02:51:53.390Z,56.70
2022-10-15T02:54:21.522Z,58.80
2022-10-15T02:56:49.102Z,57.37
2022-10-15T02:59:19.692Z,60.00
2022-10-15T03:01:47.669Z,61.27
2022-10-15T03:04:16.514Z,56.90
2022-10-15T03:06:46.338Z,57.50
2022-10-15T03:09:14.951Z,66.53
2022-10-15T03:11:42.459Z,59.10
2022-10-15T03:14:10.165Z,57.10
2022-10-15T03:16:37.678Z,58.47
2022-10-15T03:19:05.927Z,71.40
2022-10-15T03:21:33.912Z,59.63
2022-10-15T03:24:12.275Z,62.83
2022-10-15T03:26:40.023Z,57.80
2022-10-15T03:29:07.598Z,54.77
2022-10-15T03:31:41.398Z,53.77
2022-10-15T03:34:09.465Z,56.17
2022-10-15T03:36:37.318Z,55.70
2022-10-15T03:39:08.893Z,62.50
2022-10-15T03:41:40.153Z,61.33
2022-10-15T03:44:08.806Z,61.97
2022-10-15T03:46:41.252Z,58.70
2022-10-15T03:49:09.147Z,57.40
2022-10-15T03:51:37.388Z,65.90
2022-10-15T03:54:11.119Z,60.00
2022-10-15T03:56:47.932Z,60.07
2022-10-15T03:59:24.367Z,67.70
2022-10-15T04:01:59.050Z,64.33
2022-10-15T04:04:27.340Z,65.97
2022-10-15T04:06:54.971Z,59.23
2022-10-15T04:09:22.606Z,58.37
2022-10-15T04:11:51.568Z,62.30
2022-10-15T04:14:20.192Z,60.93
2022-10-15T04:16:47.676Z,66.83
2022-10-15T04:19:20.294Z,58.03
2022-10-15T04:21:58.660Z,57.80
2022-10-15T04:24:42.752Z,56.33
2022-10-15T04:27:12.266Z,65.37
2022-10-15T04:29:40.026Z,60.00
2022-10-15T04:32:15.139Z,65.27
2022-10-15T04:34:43.233Z,59.67
2022-10-15T04:37:11.679Z,67.10
2022-10-15T04:39:39.933Z,65.87
2022-10-15T04:42:13.626Z,58.17
2022-10-15T04:44:41.528Z,63.07
2022-10-15T04:47:09.244Z,60.63
2022-10-15T04:49:42.673Z,60.93
2022-10-15T04:52:26.957Z,66.40
2022-10-15T04:55:05.101Z,64.27
2022-10-15T04:57:33.976Z,59.87
2022-10-15T05:00:01.546Z,65.37
2022-10-15T05:02:35.144Z,61.17
2022-10-15T05:05:31.994Z,65.37
2022-10-15T05:08:03.530Z,63.70
2022-10-15T05:10:35.069Z,56.83
2022-10-15T05:13:07.901Z,63.50
2022-10-15T05:15:38.295Z,56.50
2022-10-15T05:18:09.289Z,55.73
2022-10-15T05:20:45.746Z,60.10
2022-10-15T05:23:17.673Z,54.30
2022-10-15T05:25:54.213Z,54.93
2022-10-15T05:28:27.141Z,57.00
2022-10-15T05:30:54.759Z,47.37
2022-10-15T05:33:22.531Z,48.23
2022-10-15T05:35:50.310Z,48.67
2022-10-15T05:38:21.305Z,47.80
2022-10-15T05:40:49.556Z,48.77
2022-10-15T05:43:21.389Z,47.23
2022-10-15T05:45:54.471Z,43.30
2022-10-15T05:48:22.257Z,45.83
2022-10-15T05:50:49.806Z,42.00
2022-10-15T05:53:24.356Z,43.90
2022-10-15T05:55:55.906Z,45.80
2022-10-15T05:58:29.046Z,43.93
2022-10-15T06:01:01.297Z,42.70
2022-10-15T06:03:29.107Z,43.63
2022-10-15T06:05:56.648Z,43.47
2022-10-15T06:08:24.321Z,37.77
2022-10-15T06:10:52.018Z,40.73
2022-10-15T06:13:19.784Z,42.10
2022-10-15T06:15:48.186Z,41.40
2022-10-15T06:18:17.859Z,38.83
2022-10-15T06:20:45.476Z,37.67
2022-10-15T06:23:13.208Z,38.83
2022-10-15T06:25:40.733Z,42.83
2022-10-15T06:28:09.481Z,41.53
2022-10-15T06:30:42.302Z,38.87
2022-10-15T06:35:44.475Z,39.60
2022-10-15T06:38:13.895Z,40.97
2022-10-15T06:40:41.594Z,36.87
2022-10-15T06:43:09.806Z,43.83
2022-10-15T06:45:37.910Z,35.50
2022-10-15T06:48:09.502Z,32.93
2022-10-15T06:50:38.270Z,34.93
2022-10-15T06:53:07.482Z,35.93
2022-10-15T06:55:35.884Z,35.63
2022-10-15T06:58:03.543Z,33.10
2022-10-15T07:00:31.255Z,31.40
2022-10-15T07:03:03.339Z,31.63
2022-10-15T07:05:30.876Z,32.43
2022-10-15T07:07:58.678Z,32.67
2022-10-15T07:10:28.375Z,30.97
2022-10-15T07:12:55.867Z,31.87
2022-10-15T07:15:23.585Z,37.73
2022-10-15T07:17:51.667Z,31.80
2022-10-15T07:20:21.923Z,35.40
2022-10-15T07:22:52.130Z,36.00
2022-10-15T07:25:20.348Z,34.87
2022-10-15T07:27:49.491Z,35.37
2022-10-15T07:30:17.145Z,29.63
2022-10-15T07:32:46.459Z,36.77
2022-10-15T07:35:14.297Z,35.73
2022-10-15T07:37:41.949Z,28.87
2022-10-15T07:40:09.897Z,32.30
2022-10-15T07:42:38.529Z,32.50
2022-10-15T07:45:08.510Z,24.07
2022-10-15T07:47:36.127Z,25.23
2022-10-15T07:50:03.938Z,23.10
2022-10-15T07:52:31.981Z,21.40
2022-10-15T07:54:59.427Z,19.20
2022-10-15T07:57:27.601Z,21.43
2022-10-15T07:59:55.194Z,20.77
2022-10-15T08:02:24.530Z,19.20
2022-10-15T08:04:52.524Z,16.80
2022-10-15T08:07:20.066Z,17.60
2022-10-15T08:09:47.540Z,19.40
2022-10-15T08:12:15.315Z,20.07
2022-10-15T08:14:42.910Z,16.77
2022-10-15T08:17:10.830Z,22.43
2022-10-15T08:19:40.225Z,18.20
2022-10-15T08:22:08.034Z,14.07
2022-10-15T08:24:35.834Z,15.97
2022-10-15T08:27:03.374Z,17.93
2022-10-15T08:29:31.478Z,16.07
2022-10-15T08:31:59.019Z,16.67
2022-10-15T08:34:27.432Z,18.53
2022-10-15T08:36:56.525Z,18.00
2022-10-15T08:39:24.126Z,15.73
2022-10-15T08:41:53.126Z,14.43
2022-10-15T08:44:23.723Z,15.60
2022-10-15T08:46:53.382Z,17.57
2022-10-15T08:49:27.581Z,13.70
2022-10-15T08:51:58.306Z,12.07
2022-10-15T08:54:25.990Z,11.30
2022-10-15T08:56:55.741Z,14.43
2022-10-15T08:59:31.859Z,13.93
2022-10-15T09:02:03.915Z,11.77
2022-10-15T09:04:33.354Z,14.60
2022-10-15T09:07:05.665Z,15.03
2022-10-15T09:09:36.043Z,19.60
2022-10-15T09:12:06.219Z,17.27
2022-10-15T09:14:35.580Z,17.90
2022-10-15T09:17:06.591Z,17.10
2022-10-15T09:19:36.118Z,17.13
2022-10-15T09:22:13.504Z,15.33
2022-10-15T09:24:41.202Z,16.83
2022-10-15T09:27:10.810Z,19.73
2022-10-15T09:29:42.754Z,19.33
2022-10-15T09:32:14.486Z,20.90
2022-10-15T09:34:44.694Z,16.47
2022-10-15T09:37:16.387Z,19.20
2022-10-15T09:40:09.231Z,17.90
2022-10-15T09:42:38.597Z,14.37
2022-10-15T09:45:07.420Z,14.03
2022-10-15T09:47:36.159Z,14.67
2022-10-15T09:50:05.007Z,15.97
2022-10-15T09:52:46.654Z,13.67
2022-10-15T09:55:25.671Z,13.53
2022-10-15T09:57:56.020Z,16.50
2022-10-15T10:00:24.187Z,13.77
2022-10-15T10:03:04.878Z,11.87
2022-10-15T10:05:33.919Z,15.60
2022-10-15T10:08:10.269Z,17.97
2022-10-15T10:10:41.773Z,19.37
2022-10-15T10:13:22.714Z,21.03
2022-10-15T10:15:57.505Z,15.77
2022-10-15T10:18:27.647Z,12.43
2022-10-15T10:20:58.935Z,13.20
2022-10-15T10:23:31.344Z,13.50
2022-10-15T10:26:00.175Z,11.87
2022-10-15T10:28:28.915Z,11.73
2022-10-15T10:31:03.549Z,12.90
2022-10-15T10:33:32.952Z,11.77
2022-10-15T10:36:01.615Z,14.83
2022-10-15T10:38:32.879Z,10.47
2022-10-15T10:41:05.283Z,12.00
2022-10-15T10:43:38.309Z,11.20
2022-10-15T10:46:18.197Z,12.90
2022-10-15T10:48:49.141Z,14.50
2022-10-15T10:51:19.398Z,13.70
2022-10-15T10:53:54.910Z,12.13
2022-10-15T10:56:24.297Z,11.93
2022-10-15T10:59:00.168Z,11.57
2022-10-15T11:01:28.235Z,11.67
2022-10-15T11:03:55.736Z,11.67
2022-10-15T11:06:33.125Z,12.80
2022-10-15T11:09:18.700Z,11.00
2022-10-15T11:11:53.356Z,11.07
2022-10-15T11:14:25.218Z,11.10
2022-10-15T11:16:57.300Z,15.03
2022-10-15T11:20:06.217Z,10.80
2022-10-15T11:22:35.925Z,11.67
2022-10-15T11:25:08.126Z,11.47
2022-10-15T11:27:42.999Z,10.50
2022-10-15T11:30:18.295Z,11.87
2022-10-15T11:33:06.845Z,10.10
2022-10-15T11:35:55.171Z,10.87
2022-10-15T11:38:29.672Z,12.50
2022-10-15T11:41:04.692Z,10.90
2022-10-15T11:43:39.996Z,11.87
2022-10-15T11:46:12.191Z,12.30
2022-10-15T11:48:47.571Z,9.30
2022-10-15T11:51:23.502Z,11.33
2022-10-15T11:53:57.736Z,12.33
2022-10-15T11:56:30.280Z,17.00
2022-10-15T11:59:01.704Z,10.20
2022-10-15T12:01:32.043Z,16.10
2022-10-15T12:04:09.662Z,14.70
2022-10-15T12:06:38.446Z,10.13
2022-10-15T12:09:06.983Z,9.70
2022-10-15T12:11:43.055Z,10.50
2022-10-15T12:14:21.651Z,9.70
2022-10-15T12:16:55.166Z,9.50
2022-10-15T12:19:27.482Z,11.97
2022-10-15T12:22:06.838Z,14.90
2022-10-15T12:24:52.361Z,9.70
2022-10-15T12:27:26.971Z,8.67
2022-10-15T12:30:11.570Z,7.60
2022-10-15T12:32:40.124Z,7.47
2022-10-15T12:35:08.913Z,8.77
2022-10-15T12:37:36.932Z,15.07
2022-10-15T12:40:06.832Z,8.77
2022-10-15T12:42:36.669Z,10.63
2022-10-15T12:45:05.435Z,10.13
2022-10-15T12:47:49.913Z,8.80
2022-10-15T12:50:19.130Z,10.27
2022-10-15T12:52:52.245Z,9.07
2022-10-15T12:55:22.161Z,9.70
2022-10-15T13:00:42.901Z,10.57
2022-10-15T13:03:15.715Z,12.10
2022-10-15T13:05:43.493Z,7.07
2022-10-15T13:08:14.330Z,7.27
2022-10-15T13:10:48.772Z,7.50
2022-10-15T13:13:19.133Z,7.40
2022-10-15T13:15:54.574Z,8.60
2022-10-15T13:18:25.623Z,6.10
2022-10-15T13:20:56.144Z,7.00
2022-10-15T13:23:31.726Z,6.40
2022-10-15T13:26:13.251Z,6.90
2022-10-15T13:28:42.834Z,7.13
2022-10-15T13:31:14.511Z,5.37
2022-10-15T13:33:44.292Z,6.27
2022-10-15T13:36:19.353Z,9.60
2022-10-15T13:38:52.480Z,6.43
2022-10-15T13:41:24.006Z,10.93
2022-10-15T13:43:54.895Z,7.63
2022-10-15T13:46:24.398Z,8.70
2022-10-15T13:48:57.199Z,6.70
2022-10-15T13:51:26.556Z,8.60
2022-10-15T13:53:54.051Z,6.60
2022-10-15T13:56:24.656Z,8.47
2022-10-15T13:58:54.810Z,6.20
2022-10-15T14:01:23.523Z,9.20
2022-10-15T14:03:52.013Z,6.13
2022-10-15T14:06:21.210Z,5.83
2022-10-15T14:08:49.683Z,7.90
2022-10-15T14:11:17.733Z,7.50
2022-10-15T14:13:46.403Z,7.33
2022-10-15T14:16:16.758Z,7.20
2022-10-15T14:18:49.030Z,5.97
2022-10-15T14:21:19.154Z,7.33
2022-10-15T14:23:47.957Z,8.10
2022-10-15T14:26:16.848Z,7.30
2022-10-15T14:28:50.892Z,10.17
2022-10-15T14:31:29.724Z,10.33
2022-10-15T14:33:57.769Z,9.80
2022-10-15T14:36:27.002Z,8.23
2022-10-15T14:38:55.462Z,10.20
2022-10-15T14:41:26.045Z,6.93
2022-10-15T14:44:04.985Z,7.67
2022-10-15T14:46:37.218Z,8.63
2022-10-15T14:49:05.659Z,9.53
2022-10-15T14:51:33.122Z,8.07
2022-10-15T14:54:01.095Z,7.47
2022-10-15T14:56:32.227Z,7.20
2022-10-15T14:59:01.050Z,14.03
2022-10-15T15:01:30.353Z,9.57
2022-10-15T15:03:59.334Z,5.90
2022-10-15T15:06:26.783Z,7.20
2022-10-15T15:08:54.465Z,32.13
2022-10-15T15:11:23.899Z,7.17
2022-10-15T15:13:52.200Z,6.10
2022-10-15T15:16:20.086Z,6.60
2022-10-15T15:18:48.830Z,5.80
2022-10-15T15:21:20.869Z,6.43
2022-10-15T15:23:49.355Z,6.30
2022-10-15T15:26:16.919Z,6.57
2022-10-15T15:28:44.589Z,8.93
2022-10-15T15:31:14.977Z,8.07
2022-10-15T15:33:42.703Z,6.43
2022-10-15T15:36:12.902Z,6.43
2022-10-15T15:38:42.240Z,7.80
2022-10-15T15:41:12.587Z,7.20
2022-10-15T15:43:40.347Z,10.00
2022-10-15T15:46:07.955Z,9.13
2022-10-15T15:48:35.667Z,7.20
2022-10-15T15:51:04.660Z,7.20
2022-10-15T15:53:32.453Z,15.57
2022-10-15T15:56:01.239Z,11.10
2022-10-15T15:58:28.907Z,13.03
2022-10-15T16:00:57.267Z,13.10
2022-10-15T16:03:24.857Z,10.97
2022-10-15T16:05:54.302Z,11.10
2022-10-15T16:08:22.472Z,10.30
2022-10-15T16:10:49.907Z,9.40
2022-10-15T16:13:18.923Z,13.63
2022-10-15T16:15:46.751Z,9.53
2022-10-15T16:18:14.341Z,10.13
2022-10-15T16:20:46.297Z,13.70
2022-10-15T16:23:15.692Z,12.40
2022-10-15T16:25:43.124Z,16.07
2022-10-15T16:28:10.816Z,13.57
2022-10-15T16:30:39.818Z,17.60
2022-10-15T16:35:36.458Z,19.40
2022-10-15T16:38:04.369Z,15.97
2022-10-15T16:40:31.858Z,16.57
2022-10-15T16:42:59.404Z,15.50
2022-10-15T16:45:27.208Z,17.43
2022-10-15T16:47:56.527Z,18.77
2022-10-15T16:50:24.133Z,17.60
2022-10-15T16:52:52.072Z,17.10
2022-10-15T16:55:19.582Z,18.40
2022-10-15T16:57:47.135Z,19.33
2022-10-15T17:00:15.497Z,20.33
2022-10-15T17:02:43.130Z,22.43
2022-10-15T17:05:12.026Z,21.10
2022-10-15T17:07:41.023Z,23.40
2022-10-15T17:10:10.978Z,24.53
2022-10-15T17:12:41.744Z,33.63
2022-10-15T17:15:09.925Z,27.50
2022-10-15T17:17:37.626Z,26.67
2022-10-15T17:20:06.678Z,28.37
2022-10-15T17:22:35.823Z,25.90
2022-10-15T17:25:03.740Z,32.70
2022-10-15T17:27:31.473Z,27.93
2022-10-15T17:29:58.951Z,32.00
2022-10-15T17:32:26.778Z,23.13
2022-10-15T17:34:54.804Z,24.40
2022-10-15T17:37:22.515Z,25.90
2022-10-15T17:39:53.444Z,24.97
2022-10-15T17:42:21.787Z,24.23
2022-10-15T17:44:49.335Z,29.17
2022-10-15T17:47:17.188Z,25.50
2022-10-15T17:49:44.715Z,23.43
2022-10-15T17:52:13.474Z,25.93
2022-10-15T17:54:40.955Z,18.70
2022-10-15T17:57:10.195Z,20.63
2022-10-15T17:59:37.653Z,19.80
2022-10-15T18:02:05.319Z,30.23
2022-10-15T18:04:39.391Z,19.50
2022-10-15T18:07:07.233Z,27.80
2022-10-15T18:09:35.290Z,19.40
2022-10-15T18:12:03.334Z,15.60
2022-10-15T18:14:35.755Z,18.47
2022-10-15T18:17:03.303Z,23.40
2022-10-15T18:19:30.801Z,19.90
2022-10-15T18:21:58.829Z,15.70
2022-10-15T18:24:26.375Z,16.63
2022-10-15T18:26:54.143Z,14.63
2022-10-15T18:29:22.597Z,19.20
2022-10-15T18:31:57.145Z,15.87
2022-10-15T18:34:27.720Z,16.17
2022-10-15T18:36:55.169Z,17.00
2022-10-15T18:39:24.180Z,15.50
2022-10-15T18:41:51.697Z,13.40
2022-10-15T18:44:21.470Z,17.20
2022-10-15T18:46:49.349Z,14.87
2022-10-15T18:49:19.459Z,22.73
2022-10-15T18:51:50.703Z,16.73
2022-10-15T18:54:18.267Z,16.77
2022-10-15T18:56:46.501Z,17.00
2022-10-15T18:59:15.898Z,13.03
2022-10-15T19:01:43.950Z,13.20
2022-10-15T19:04:13.027Z,14.20
2022-10-15T19:06:43.243Z,24.10
2022-10-15T19:09:12.652Z,16.83
2022-10-15T19:11:41.502Z,20.00
2022-10-15T19:14:09.575Z,20.40
2022-10-15T19:16:37.406Z,19.50
2022-10-15T19:19:12.466Z,18.23
2022-10-15T19:21:40.343Z,16.33
2022-10-15T19:24:09.306Z,16.37
2022-10-15T19:26:37.011Z,12.33
2022-10-15T19:29:05.026Z,15.33
2022-10-15T19:31:33.762Z,17.40
2022-10-15T19:34:01.361Z,14.83
2022-10-15T19:36:33.423Z,12.07
2022-10-15T19:39:02.044Z,13.20
2022-10-15T19:41:30.929Z,13.30
2022-10-15T19:43:58.982Z,13.47
2022-10-15T19:46:26.713Z,11.83
2022-10-15T19:48:54.936Z,12.70
2022-10-15T19:51:22.594Z,13.10
2022-10-15T19:53:51.738Z,13.93
2022-10-15T19:56:19.483Z,12.67
2022-10-15T19:58:48.686Z,12.17
2022-10-15T20:01:16.253Z,13.10
2022-10-15T20:03:44.040Z,11.73
2022-10-15T20:06:11.862Z,11.13
2022-10-15T20:08:39.453Z,14.03
2022-10-15T20:11:07.990Z,12.40
2022-10-15T20:13:35.973Z,10.30
2022-10-15T20:16:06.587Z,11.80
2022-10-15T20:18:34.616Z,13.10
2022-10-15T20:21:02.168Z,14.30
2022-10-15T20:23:29.711Z,16.00
2022-10-15T20:25:57.194Z,15.10
2022-10-15T20:28:25.113Z,16.87
2022-10-15T20:33:30.597Z,21.90
2022-10-15T20:36:02.966Z,12.83
2022-10-15T20:38:30.556Z,14.20
2022-10-15T20:40:58.755Z,14.13
2022-10-15T20:43:26.447Z,14.10
2022-10-15T20:45:56.234Z,18.07
2022-10-15T20:48:25.138Z,17.40
2022-10-15T20:50:54.659Z,16.93
2022-10-15T20:53:23.325Z,16.63
2022-10-15T20:55:50.921Z,18.83
2022-10-15T20:58:18.503Z,17.80
2022-10-15T21:00:46.166Z,19.47
2022-10-15T21:03:13.865Z,28.33
2022-10-15T21:05:41.446Z,15.80
2022-10-15T21:08:11.011Z,25.80
2022-10-15T21:10:38.542Z,21.67
2022-10-15T21:13:06.202Z,17.70
2022-10-15T21:15:34.529Z,16.03
2022-10-15T21:18:02.054Z,16.90
2022-10-15T21:20:29.646Z,19.97
2022-10-15T21:22:57.579Z,25.10
2022-10-15T21:25:26.942Z,21.23
2022-10-15T21:27:54.512Z,22.93
2022-10-15T21:30:22.075Z,21.43
2022-10-15T21:32:50.106Z,17.53
2022-10-15T21:35:17.855Z,16.70
2022-10-15T21:37:45.337Z,16.20
2022-10-15T21:40:13.166Z,22.93
2022-10-15T21:42:42.395Z,25.13
2022-10-15T21:45:10.817Z,21.27
2022-10-15T21:47:38.311Z,16.80
2022-10-15T21:50:06.390Z,16.60
2022-10-15T21:52:33.912Z,15.43
2022-10-15T21:55:01.417Z,21.83
2022-10-15T21:57:28.975Z,15.30
2022-10-15T21:59:58.070Z,16.83
2022-10-15T22:02:25.698Z,15.63
2022-10-15T22:04:53.305Z,17.40
2022-10-15T22:07:20.878Z,15.67
2022-10-15T22:09:48.527Z,18.13
2022-10-15T22:12:18.967Z,12.13
2022-10-15T22:14:49.087Z,13.57
2022-10-15T22:17:18.112Z,12.17
2022-10-15T22:19:45.815Z,10.07
2022-10-15T22:22:13.651Z,9.90
2022-10-15T22:24:41.119Z,8.87
2022-10-15T22:27:09.143Z,9.00
2022-10-15T22:29:37.264Z,15.20
2022-10-15T22:32:04.905Z,9.47
2022-10-15T22:34:34.663Z,10.20
2022-10-15T22:37:02.220Z,9.80
2022-10-15T22:39:29.942Z,10.50
2022-10-15T22:41:57.415Z,9.90
2022-10-15T22:44:25.276Z,14.10
2022-10-15T22:46:52.771Z,10.20
2022-10-15T22:49:21.871Z,11.03
2022-10-15T22:51:51.278Z,11.80
2022-10-15T22:54:19.876Z,12.43
2022-10-15T22:56:47.466Z,9.37
2022-10-15T22:59:15.351Z,9.00
2022-10-15T23:01:45.625Z,10.17
2022-10-15T23:04:13.982Z,11.93
2022-10-15T23:06:41.918Z,10.73
2022-10-15T23:09:17.733Z,9.00
2022-10-15T23:11:46.252Z,9.90
2022-10-15T23:14:14.813Z,12.13
2022-10-15T23:16:43.768Z,10.83
2022-10-15T23:19:13.485Z,12.17
2022-10-15T23:21:42.403Z,11.27
2022-10-15T23:24:11.307Z,8.80
2022-10-15T23:26:39.493Z,10.77
2022-10-15T23:29:08.220Z,10.63
2022-10-15T23:31:37.112Z,9.33
2022-10-15T23:34:05.926Z,9.50
2022-10-15T23:36:34.123Z,9.50
2022-10-15T23:39:02.667Z,10.10
2022-10-15T23:41:31.809Z,6.47
2022-10-15T23:43:59.563Z,7.20
2022-10-15T23:46:28.054Z,10.90
2022-10-15T23:48:55.683Z,7.87
2022-10-15T23:51:24.599Z,8.03
2022-10-15T23:53:53.156Z,8.13
2022-10-15T23:56:21.191Z,9.40
2022-10-15T23:58:51.020Z,6.10
